Time;durP1;ratioP1;P1;durP2;ratioP2;P2;SDS_P1;SDS_P2;PMS_P1;PMS_P2;Temp;Humidity;BMP_temperature;BMP_pressure;BME280_temperature;BME280_humidity;BME280_pressure;Samples;Min_cycle;Max_cycle;Signal;HPM_P1;HPM_P2
2023/09/21 00:00:25;;;;;;;0.28;0.28;;;;;;;23.85;100.00;100009.19;10353128;28;20038;-83
2023/09/21 00:05:32;;;;;;;0.28;0.28;;;;;;;23.89;100.00;100007.28;10361358;28;20057;-83
2023/09/21 00:10:34;;;;;;;0.43;0.20;;;;;;;23.92;100.00;100009.78;10387236;28;20494;-82
2023/09/21 00:15:36;;;;;;;0.38;0.30;;;;;;;23.93;100.00;99995.75;10385175;28;20649;-82
2023/09/21 00:20:48;;;;;;;0.03;0.03;;;;;;;23.99;100.00;99991.97;10374276;28;20064;-82
2023/09/21 00:25:55;;;;;;;0.08;0.08;;;;;;;23.94;100.00;99986.91;10387908;28;20050;-83
2023/09/21 00:31:02;;;;;;;0.30;0.20;;;;;;;24.04;100.00;99969.78;10385358;28;20564;-82
2023/09/21 00:36:12;;;;;;;1.55;0.35;;;;;;;23.85;100.00;99968.88;10374172;28;20049;-83
2023/09/21 00:41:14;;;;;;;0.10;0.10;;;;;;;24.01;100.00;99962.06;10369257;28;20141;-82
2023/09/21 00:46:17;;;;;;;0.20;0.17;;;;;;;24.26;100.00;99950.38;10369342;28;20050;-83
2023/09/21 00:51:19;;;;;;;0.10;0.10;;;;;;;24.12;100.00;99953.66;10370774;28;20041;-82
2023/09/21 00:56:21;;;;;;;0.15;0.10;;;;;;;24.00;100.00;99926.16;10351143;28;1046340;-83
2023/09/21 01:01:28;;;;;;;0.20;0.20;;;;;;;23.97;100.00;99934.16;10391005;28;20062;-83
2023/09/21 01:06:30;;;;;;;0.08;0.08;;;;;;;23.72;100.00;99935.22;10353237;28;20085;-82
2023/09/21 01:11:37;;;;;;;0.55;0.30;;;;;;;24.10;100.00;99925.69;10374637;28;20038;-83
2023/09/21 01:16:52;;;;;;;0.00;0.00;;;;;;;23.90;100.00;99922.19;10391319;28;20077;-82
2023/09/21 01:21:54;;;;;;;1.20;0.05;;;;;;;24.21;100.00;99894.50;10371937;28;20497;-83
2023/09/21 01:26:56;;;;;;;0.68;0.47;;;;;;;24.31;100.00;99895.75;10373754;28;20165;-83
2023/09/21 01:31:58;;;;;;;0.65;0.20;;;;;;;24.06;100.00;99886.41;10371587;28;20104;-83
2023/09/21 01:36:59;;;;;;;0.00;0.00;;;;;;;23.95;100.00;99883.38;10369904;28;20508;-83
2023/09/21 01:42:01;;;;;;;0.47;0.10;;;;;;;23.92;100.00;99889.63;10386969;28;20061;-83
2023/09/21 01:47:03;;;;;;;0.20;0.20;;;;;;;23.84;100.00;99886.47;10366170;28;20065;-82
2023/09/21 01:52:05;;;;;;;0.10;0.10;;;;;;;23.71;100.00;99873.06;10345016;28;20074;-83
2023/09/21 01:57:08;;;;;;;0.55;0.35;;;;;;;23.81;100.00;99870.88;10382667;28;20409;-83
2023/09/21 02:02:10;;;;;;;0.00;0.00;;;;;;;23.92;100.00;99859.84;10350558;28;20042;-83
2023/09/21 02:07:12;;;;;;;0.10;0.10;;;;;;;24.04;100.00;99851.41;10356900;28;20149;-83
2023/09/21 02:12:14;;;;;;;0.20;0.17;;;;;;;23.75;100.00;99853.59;10369796;28;20100;-83
2023/09/21 02:17:17;;;;;;;0.10;0.10;;;;;;;23.96;100.00;99844.81;10352383;28;20080;-82
2023/09/21 02:22:20;;;;;;;0.00;0.00;;;;;;;23.97;100.00;99842.09;10369349;28;20125;-83
2023/09/21 02:27:22;;;;;;;0.10;0.08;;;;;;;24.05;100.00;99842.59;10382605;28;20042;-83
2023/09/21 02:32:24;;;;;;;0.03;0.03;;;;;;;23.78;100.00;99834.16;10370567;28;20044;-83
2023/09/21 02:37:26;;;;;;;0.00;0.00;;;;;;;23.92;100.00;99823.84;10386908;28;20097;-83
2023/09/21 02:42:28;;;;;;;0.00;0.00;;;;;;;23.70;100.00;99821.41;10383646;28;20133;-83
2023/09/21 02:47:30;;;;;;;0.03;0.03;;;;;;;23.95;100.00;99806.25;10384781;28;20057;-83
2023/09/21 02:52:32;;;;;;;0.30;0.10;;;;;;;23.73;100.00;99800.19;10351809;28;20389;-83
2023/09/21 02:57:34;;;;;;;0.00;0.00;;;;;;;23.61;100.00;99800.78;10367838;28;20045;-82
2023/09/21 03:02:36;;;;;;;0.43;0.43;;;;;;;23.58;100.00;99787.75;10369092;28;20133;-83
2023/09/21 03:07:43;;;;;;;0.20;0.20;;;;;;;23.71;100.00;99783.66;10386896;28;20505;-83
2023/09/21 03:12:48;;;;;;;0.20;0.08;;;;;;;23.34;100.00;99793.25;10386414;28;20147;-83
2023/09/21 03:17:54;;;;;;;0.03;0.03;;;;;;;23.75;100.00;99781.75;10366480;28;20140;-83
2023/09/21 03:22:57;;;;;;;0.13;0.10;;;;;;;23.52;100.00;99785.41;10383435;28;20046;-83
2023/09/21 03:28:10;;;;;;;0.00;0.00;;;;;;;23.50;100.00;99779.38;10364732;28;20137;-82
2023/09/21 03:33:15;;;;;;;0.10;0.10;;;;;;;23.61;100.00;99779.75;10366940;28;20061;-83
2023/09/21 03:38:20;;;;;;;0.20;0.20;;;;;;;23.67;100.00;99784.72;10356273;28;20057;-82
2023/09/21 03:43:25;;;;;;;0.00;0.00;;;;;;;23.60;100.00;99762.25;10382932;28;20038;-83
2023/09/21 03:48:28;;;;;;;1.02;0.35;;;;;;;23.16;100.00;99771.19;10380388;28;20037;-83
2023/09/21 03:53:33;;;;;;;1.55;0.13;;;;;;;23.45;100.00;99774.34;10361361;28;20099;-83
2023/09/21 03:58:35;;;;;;;0.22;0.22;;;;;;;23.36;100.00;99772.13;10385879;28;20049;-82
2023/09/21 04:03:36;;;;;;;0.05;0.05;;;;;;;23.27;100.00;99781.28;10368436;28;20557;-83
2023/09/21 04:08:39;;;;;;;0.00;0.00;;;;;;;23.03;100.00;99777.94;10380857;28;20050;-83
2023/09/21 04:13:41;;;;;;;0.17;0.17;;;;;;;23.10;100.00;99768.84;10385443;28;20046;-82
2023/09/21 04:18:42;;;;;;;1.45;0.40;;;;;;;22.97;100.00;99769.41;10373297;28;20057;-83
2023/09/21 04:23:45;;;;;;;0.17;0.17;;;;;;;22.46;100.00;99766.31;10359975;28;20049;-82
2023/09/21 04:28:48;;;;;;;0.20;0.10;;;;;;;22.15;100.00;99759.66;10391808;28;20104;-82
2023/09/21 04:33:50;;;;;;;0.38;0.30;;;;;;;22.11;100.00;99752.84;10375139;28;20049;-82
2023/09/21 04:38:51;;;;;;;0.00;0.00;;;;;;;21.74;100.00;99749.06;10359725;28;20060;-83
2023/09/21 04:43:54;;;;;;;0.15;0.15;;;;;;;22.39;100.00;99748.28;10357686;28;20052;-83
2023/09/21 04:48:56;;;;;;;0.00;0.00;;;;;;;22.16;100.00;99745.63;10375706;28;20104;-83
2023/09/21 04:53:58;;;;;;;2.40;0.95;;;;;;;22.07;100.00;99738.16;10370667;28;21372;-83
2023/09/21 04:59:00;;;;;;;0.20;0.15;;;;;;;21.98;100.00;99741.16;10390512;28;20045;-83
2023/09/21 05:04:02;;;;;;;0.05;0.05;;;;;;;22.09;100.00;99733.69;10386898;28;20049;-83
2023/09/21 05:09:05;;;;;;;0.50;0.10;;;;;;;21.73;100.00;99741.28;10347612;28;20045;-83
2023/09/21 05:14:12;;;;;;;0.20;0.20;;;;;;;21.64;100.00;99747.69;10388699;28;20062;-83
2023/09/21 05:19:14;;;;;;;0.22;0.08;;;;;;;21.67;100.00;99737.13;10372097;28;20420;-83
2023/09/21 05:24:15;;;;;;;0.10;0.10;;;;;;;22.08;100.00;99739.84;10358173;28;20504;-83
2023/09/21 05:29:17;;;;;;;0.00;0.00;;;;;;;21.65;100.00;99746.78;10373601;28;20129;-83
2023/09/21 05:34:19;;;;;;;0.00;0.00;;;;;;;21.85;100.00;99743.41;10373246;28;20034;-83
2023/09/21 05:39:23;;;;;;;0.65;0.20;;;;;;;22.06;100.00;99746.94;10369433;28;20045;-83
2023/09/21 05:44:25;;;;;;;0.03;0.03;;;;;;;22.02;100.00;99758.47;10369850;28;20070;-83
2023/09/21 05:49:27;;;;;;;0.22;0.22;;;;;;;22.26;100.00;99756.63;10382673;28;20057;-83
2023/09/21 05:54:29;;;;;;;0.40;0.22;;;;;;;22.68;100.00;99754.91;10371781;28;20700;-83
2023/09/21 05:59:31;;;;;;;0.22;0.10;;;;;;;22.48;100.00;99756.63;10389117;28;20050;-82
2023/09/21 06:04:34;;;;;;;0.17;0.10;;;;;;;22.95;100.00;99759.91;10368980;28;20092;-83
2023/09/21 06:09:36;;;;;;;0.40;0.35;;;;;;;23.85;100.00;99750.59;10389125;28;20049;-83
2023/09/21 06:14:38;;;;;;;0.25;0.10;;;;;;;23.55;100.00;99748.50;10372432;28;20057;-83
2023/09/21 06:19:40;;;;;;;0.57;0.32;;;;;;;23.57;100.00;99749.25;10388129;28;20050;-83
2023/09/21 06:24:43;;;;;;;0.00;0.00;;;;;;;23.72;100.00;99737.16;10372115;28;20046;-83
2023/09/21 06:29:45;;;;;;;1.17;0.10;;;;;;;23.80;100.00;99726.28;10381619;28;20042;-83
2023/09/21 06:34:48;;;;;;;1.02;0.30;;;;;;;23.58;100.00;99727.28;10366892;28;20121;-83
2023/09/21 06:39:49;;;;;;;0.00;0.00;;;;;;;23.84;100.00;99717.31;10376504;28;20046;-83
2023/09/21 06:44:54;;;;;;;0.08;0.00;;;;;;;23.95;100.00;99719.47;10367727;28;20508;-83
2023/09/21 06:49:56;;;;;;;0.20;0.20;;;;;;;23.87;100.00;99712.75;10383890;28;20060;-82
2023/09/21 06:55:00;;;;;;;0.10;0.10;;;;;;;24.15;100.00;99710.59;10351945;28;20401;-83
2023/09/21 07:00:08;;;;;;;0.00;0.00;;;;;;;24.70;100.00;99712.22;10369480;28;20108;-82
2023/09/21 07:05:12;;;;;;;0.00;0.00;;;;;;;24.92;100.00;99717.22;10366478;28;20486;-82
2023/09/21 07:10:16;;;;;;;0.10;0.10;;;;;;;24.84;100.00;99724.66;10335756;28;20053;-83
2023/09/21 07:15:19;;;;;;;0.13;0.13;;;;;;;25.31;100.00;99723.06;10369580;28;20049;-82
2023/09/21 07:20:23;;;;;;;0.05;0.03;;;;;;;24.05;100.00;99734.72;10362699;28;20046;-83
2023/09/21 07:25:27;;;;;;;0.20;0.17;;;;;;;24.44;100.00;99748.59;10384111;28;20390;-83
2023/09/21 07:30:32;;;;;;;0.13;0.10;;;;;;;23.88;100.00;99748.66;10380206;28;20057;-83
2023/09/21 07:35:34;;;;;;;0.08;0.08;;;;;;;23.84;100.00;99749.72;10380885;28;20065;-83
2023/09/21 07:40:36;;;;;;;0.00;0.00;;;;;;;22.85;100.00;99758.56;10383122;28;20540;-83
2023/09/21 07:45:38;;;;;;;0.00;0.00;;;;;;;22.25;100.00;99756.69;10366502;28;20042;-83
2023/09/21 07:50:40;;;;;;;0.10;0.10;;;;;;;22.60;100.00;99750.00;10369099;28;20144;-83
2023/09/21 07:55:42;;;;;;;0.15;0.08;;;;;;;22.15;100.00;99754.41;10376873;28;20046;-84
2023/09/21 08:00:43;;;;;;;0.10;0.10;;;;;;;22.29;100.00;99745.16;10393622;28;20053;-83
2023/09/21 08:05:45;;;;;;;2.08;0.25;;;;;;;22.39;100.00;99750.91;10376968;28;20041;-82
2023/09/21 08:10:50;;;;;;;4.50;0.85;;;;;;;22.15;100.00;99743.94;10392816;28;20382;-82
2023/09/21 08:15:52;;;;;;;0.05;0.05;;;;;;;22.53;100.00;99740.69;10378114;28;20052;-83
2023/09/21 08:20:53;;;;;;;0.03;0.03;;;;;;;22.52;100.00;99744.22;10360134;28;20144;-83
2023/09/21 08:25:56;;;;;;;0.20;0.20;;;;;;;22.84;100.00;99746.38;10393729;28;20045;-83
2023/09/21 08:30:58;;;;;;;0.10;0.10;;;;;;;23.18;100.00;99729.16;10367326;28;20046;-82
2023/09/21 08:36:00;;;;;;;0.00;0.00;;;;;;;23.11;100.00;99750.41;10376951;28;20401;-83
2023/09/21 08:41:02;;;;;;;0.40;0.40;;;;;;;23.12;100.00;99751.25;10358809;28;20116;-82
2023/09/21 08:46:04;;;;;;;0.32;0.30;;;;;;;23.21;100.00;99744.75;10371120;28;20046;-83
2023/09/21 08:51:15;;;;;;;0.60;0.32;;;;;;;23.48;100.00;99747.06;10380456;28;20050;-83
2023/09/21 08:56:18;;;;;;;0.03;0.03;;;;;;;23.29;100.00;99755.78;10384192;28;20104;-83
2023/09/21 09:01:21;;;;;;;0.10;0.10;;;;;;;23.40;100.00;99761.41;10372945;28;20141;-83
2023/09/21 09:06:24;;;;;;;0.35;0.28;;;;;;;23.58;100.00;99770.22;10382474;28;20049;-82
2023/09/21 09:11:40;;;;;;;0.90;0.55;;;;;;;23.71;100.00;99777.53;10373819;28;20053;-83
2023/09/21 09:16:43;;;;;;;0.10;0.10;;;;;;;23.59;100.00;99785.09;10337752;28;20054;-83
2023/09/21 09:21:45;;;;;;;0.10;0.10;;;;;;;23.65;100.00;99783.09;10388141;28;20052;-82
2023/09/21 09:26:47;;;;;;;0.15;0.15;;;;;;;23.67;100.00;99783.88;10391487;28;20049;-84
2023/09/21 09:31:49;;;;;;;0.43;0.10;;;;;;;23.39;100.00;99796.50;10351819;28;20046;-83
2023/09/21 09:36:51;;;;;;;0.20;0.20;;;;;;;23.82;100.00;99793.69;10377408;28;20052;-82
2023/09/21 09:41:53;;;;;;;0.15;0.10;;;;;;;23.72;100.00;99798.47;10385712;28;20447;-82
2023/09/21 09:46:58;;;;;;;0.28;0.20;;;;;;;24.15;100.00;99789.53;10390758;28;20065;-82
2023/09/21 09:52:01;;;;;;;0.68;0.20;;;;;;;23.94;100.00;99770.38;10373736;28;20038;-82
2023/09/21 09:57:11;;;;;;;0.38;0.25;;;;;;;24.52;100.00;99785.94;10380165;28;20505;-82
2023/09/21 10:02:17;;;;;;;0.30;0.30;;;;;;;24.39;100.00;99788.31;10390216;28;20048;-83
2023/09/21 10:07:19;;;;;;;0.00;0.00;;;;;;;24.40;100.00;99779.50;10374137;28;20551;-81
2023/09/21 10:12:23;;;;;;;0.00;0.00;;;;;;;24.80;100.00;99781.06;10370617;28;20045;-83
2023/09/21 10:17:27;;;;;;;0.43;0.20;;;;;;;24.97;100.00;99773.16;10345742;28;20057;-84
2023/09/21 10:22:29;;;;;;;0.43;0.17;;;;;;;24.50;100.00;99776.41;10378370;28;20160;-83
2023/09/21 10:27:33;;;;;;;0.00;0.00;;;;;;;24.37;100.00;99770.91;10374180;28;20481;-84
2023/09/21 10:32:49;;;;;;;0.20;0.10;;;;;;;24.59;100.00;99773.31;10371240;28;20060;-83
2023/09/21 10:37:51;;;;;;;0.00;0.00;;;;;;;24.61;100.00;99768.81;10371347;28;20042;-83
2023/09/21 10:42:53;;;;;;;0.10;0.10;;;;;;;24.65;100.00;99759.84;10369368;28;20410;-84
2023/09/21 10:47:54;;;;;;;0.03;0.03;;;;;;;25.15;100.00;99754.66;10349707;28;20574;-82
2023/09/21 10:52:57;;;;;;;1.52;0.20;;;;;;;24.84;100.00;99757.13;10369061;28;20065;-84
2023/09/21 10:58:00;;;;;;;1.10;0.55;;;;;;;24.97;100.00;99761.75;10348044;28;20477;-83
2023/09/21 11:03:02;;;;;;;0.40;0.20;;;;;;;24.59;100.00;99754.00;10344326;28;20037;-83
2023/09/21 11:08:04;;;;;;;0.55;0.55;;;;;;;24.83;100.00;99744.06;10368983;28;20273;-83
2023/09/21 11:13:09;;;;;;;1.55;1.05;;;;;;;25.01;100.00;99742.22;10348723;28;20041;-83
2023/09/21 11:18:11;;;;;;;0.10;0.10;;;;;;;25.39;100.00;99742.00;10391354;28;20042;-83
2023/09/21 11:23:12;;;;;;;0.65;0.10;;;;;;;25.62;100.00;99735.44;10358217;28;20037;-82
2023/09/21 11:28:16;;;;;;;0.00;0.00;;;;;;;25.69;100.00;99727.19;10355480;28;20042;-83
2023/09/21 11:33:21;;;;;;;0.20;0.10;;;;;;;25.71;100.00;99727.94;10385908;28;20442;-83
2023/09/21 11:38:23;;;;;;;0.22;0.22;;;;;;;25.40;100.00;99734.91;10384961;28;20382;-83
2023/09/21 11:43:25;;;;;;;0.00;0.00;;;;;;;25.42;100.00;99738.34;10375980;28;20416;-81
2023/09/21 11:48:29;;;;;;;0.22;0.20;;;;;;;25.28;100.00;99734.59;10388596;28;20041;-82
2023/09/21 11:53:31;;;;;;;0.20;0.10;;;;;;;24.65;100.00;99720.34;10387300;28;20128;-84
2023/09/21 11:58:33;;;;;;;0.43;0.20;;;;;;;25.24;100.00;99726.97;10359437;28;20037;-83
2023/09/21 12:03:37;;;;;;;0.00;0.00;;;;;;;25.39;100.00;99714.75;10387357;28;20054;-83
2023/09/21 12:08:39;;;;;;;0.00;0.00;;;;;;;25.44;100.00;99712.72;10386850;28;20149;-82
2023/09/21 12:13:42;;;;;;;0.32;0.22;;;;;;;25.23;100.00;99712.94;10370458;28;20045;-82
2023/09/21 12:18:44;;;;;;;0.08;0.08;;;;;;;25.87;100.00;99697.13;10387711;28;20052;-82
2023/09/21 12:23:46;;;;;;;0.22;0.20;;;;;;;25.64;100.00;99683.47;10368444;28;20132;-82
2023/09/21 12:28:47;;;;;;;0.43;0.25;;;;;;;25.66;100.00;99692.13;10370105;28;20049;-83
2023/09/21 12:33:50;;;;;;;0.10;0.05;;;;;;;25.85;100.00;99696.38;10359545;28;20132;-82
2023/09/21 12:38:52;;;;;;;0.15;0.15;;;;;;;25.15;100.00;99694.03;10380350;28;20066;-82
2023/09/21 12:43:54;;;;;;;0.00;0.00;;;;;;;25.77;100.00;99688.03;10369156;28;20101;-82
2023/09/21 12:48:56;;;;;;;0.00;0.00;;;;;;;25.97;100.00;99678.97;10384676;28;20057;-82
2023/09/21 12:53:58;;;;;;;0.10;0.10;;;;;;;25.14;100.00;99679.16;10368036;28;20061;-82
2023/09/21 12:59:00;;;;;;;0.00;0.00;;;;;;;25.82;100.00;99675.41;10385024;28;20054;-82
2023/09/21 13:04:02;;;;;;;0.28;0.20;;;;;;;25.02;100.00;99676.28;10364836;28;20038;-82
2023/09/21 13:09:06;;;;;;;0.00;0.00;;;;;;;24.62;100.00;99680.16;10362656;28;20453;-82
2023/09/21 13:14:09;;;;;;;0.10;0.10;;;;;;;24.46;100.00;99673.03;10370337;28;20421;-82
2023/09/21 13:19:11;;;;;;;0.08;0.08;;;;;;;24.42;100.00;99674.13;10340983;28;20049;-82
2023/09/21 13:24:13;;;;;;;0.00;0.00;;;;;;;24.76;100.00;99661.03;10357547;28;20045;-82
2023/09/21 13:29:15;;;;;;;0.00;0.00;;;;;;;24.53;100.00;99663.06;10367692;28;20132;-82
2023/09/21 13:34:21;;;;;;;0.00;0.00;;;;;;;24.75;100.00;99656.69;10384197;28;20417;-82
2023/09/21 13:39:23;;;;;;;0.10;0.10;;;;;;;24.54;100.00;99649.81;10387941;28;20145;-82
2023/09/21 13:44:28;;;;;;;0.00;0.00;;;;;;;24.69;100.00;99636.78;10371472;28;20084;-83
2023/09/21 13:49:30;;;;;;;0.20;0.10;;;;;;;24.91;100.00;99628.56;10361365;28;20496;-82
2023/09/21 13:54:31;;;;;;;0.00;0.00;;;;;;;25.51;100.00;99621.78;10368291;28;20046;-83
2023/09/21 13:59:33;;;;;;;0.00;0.00;;;;;;;25.16;100.00;99614.06;10373176;28;20095;-83
2023/09/21 14:04:35;;;;;;;0.10;0.10;;;;;;;23.96;100.00;99637.84;10364394;28;20038;-82
2023/09/21 14:09:38;;;;;;;0.00;0.00;;;;;;;22.84;100.00;99633.47;10367288;28;20045;-82
2023/09/21 14:14:39;;;;;;;0.00;0.00;;;;;;;21.74;100.00;99607.53;10363737;28;20069;-83
2023/09/21 14:19:41;;;;;;;0.00;0.00;;;;;;;20.79;100.00;99615.53;10361416;28;20042;-83
2023/09/21 14:24:43;;;;;;;0.00;0.00;;;;;;;20.96;100.00;99606.22;10386876;28;20053;-84
2023/09/21 14:29:44;;;;;;;0.00;0.00;;;;;;;21.53;100.00;99610.06;10378580;28;20096;-82
2023/09/21 14:34:47;;;;;;;1.55;0.40;;;;;;;21.08;100.00;99603.13;10392322;28;20141;-83
2023/09/21 14:39:49;;;;;;;0.17;0.10;;;;;;;22.44;100.00;99621.22;10382390;28;20146;-82
2023/09/21 14:44:51;;;;;;;0.00;0.00;;;;;;;23.36;100.00;99638.09;10359368;28;20092;-83
2023/09/21 14:49:53;;;;;;;0.00;0.00;;;;;;;23.00;100.00;99644.97;10381628;28;20512;-83
2023/09/21 14:54:55;;;;;;;0.03;0.03;;;;;;;22.55;100.00;99630.38;10380179;28;20393;-83
2023/09/21 14:59:57;;;;;;;0.00;0.00;;;;;;;22.56;100.00;99624.19;10350883;28;20166;-82
2023/09/21 15:04:59;;;;;;;0.00;0.00;;;;;;;21.75;100.00;99617.09;10376339;28;20042;-83
2023/09/21 15:10:02;;;;;;;0.00;0.00;;;;;;;22.56;100.00;99609.31;10374784;28;20046;-83
2023/09/21 15:15:05;;;;;;;0.00;0.00;;;;;;;22.43;100.00;99637.88;10363888;28;20485;-83
2023/09/21 15:20:07;;;;;;;0.10;0.10;;;;;;;21.96;100.00;99597.00;10366088;28;20126;-82
2023/09/21 15:25:09;;;;;;;0.00;0.00;;;;;;;22.25;100.00;99617.63;10365915;28;20042;-83
2023/09/21 15:30:11;;;;;;;0.00;0.00;;;;;;;22.41;100.00;99631.84;10365228;28;20497;-83
2023/09/21 15:35:13;;;;;;;0.00;0.00;;;;;;;21.63;100.00;99573.88;10332950;28;20221;-83
2023/09/21 15:40:15;;;;;;;0.03;0.03;;;;;;;22.29;100.00;99575.47;10364102;28;20417;-83
2023/09/21 15:45:17;;;;;;;0.00;0.00;;;;;;;22.11;100.00;99553.53;10347785;28;20056;-83
2023/09/21 15:50:19;;;;;;;0.10;0.10;;;;;;;21.65;100.00;99540.63;10363501;28;20108;-83
2023/09/21 15:55:20;;;;;;;0.00;0.00;;;;;;;21.87;100.00;99535.31;10361486;28;20068;-83
2023/09/21 16:00:23;;;;;;;0.00;0.00;;;;;;;22.01;100.00;99520.72;10362751;28;20038;-83
2023/09/21 16:05:24;;;;;;;0.00;0.00;;;;;;;22.07;100.00;99520.50;10353266;28;20061;-83
2023/09/21 16:10:27;;;;;;;0.00;0.00;;;;;;;21.48;100.00;99494.09;10363461;28;20058;-83
2023/09/21 16:15:28;;;;;;;0.00;0.00;;;;;;;21.39;100.00;99470.94;10361382;28;20140;-83
2023/09/21 16:20:31;;;;;;;0.00;0.00;;;;;;;21.06;100.00;99458.28;10366900;28;20052;-82
2023/09/21 16:25:32;;;;;;;0.08;0.00;;;;;;;21.29;100.00;99448.66;10365345;28;20050;-83
2023/09/21 16:30:34;;;;;;;0.00;0.00;;;;;;;21.30;100.00;99455.59;10370860;28;20057;-83
2023/09/21 16:35:37;;;;;;;0.00;0.00;;;;;;;21.27;100.00;99455.69;10369110;28;20042;-83
2023/09/21 16:40:39;;;;;;;0.00;0.00;;;;;;;21.23;100.00;99457.59;10356815;28;20107;-83
2023/09/21 16:45:41;;;;;;;0.00;0.00;;;;;;;21.48;100.00;99460.03;10386705;28;20054;-83
2023/09/21 16:50:43;;;;;;;0.35;0.20;;;;;;;21.18;100.00;99457.81;10381594;28;20060;-82
2023/09/21 16:55:44;;;;;;;0.00;0.00;;;;;;;21.59;100.00;99456.16;10371274;28;20052;-82
2023/09/21 17:00:46;;;;;;;0.00;0.00;;;;;;;21.96;100.00;99449.28;10370970;28;20498;-83
2023/09/21 17:05:48;;;;;;;0.00;0.00;;;;;;;21.75;100.00;99467.69;10386946;28;20112;-83
2023/09/21 17:10:49;;;;;;;0.00;0.00;;;;;;;22.01;100.00;99500.63;10372152;28;20048;-82
2023/09/21 17:15:51;;;;;;;0.00;0.00;;;;;;;20.82;100.00;99512.50;10375456;28;20046;-83
2023/09/21 17:20:53;;;;;;;0.00;0.00;;;;;;;21.15;100.00;99510.31;10361835;28;20461;-82
2023/09/21 17:25:54;;;;;;;0.03;0.03;;;;;;;21.41;100.00;99500.50;10383376;28;20046;-82
2023/09/21 17:30:56;;;;;;;0.00;0.00;;;;;;;22.00;100.00;99519.06;10375915;28;20053;-82
2023/09/21 17:35:58;;;;;;;0.38;0.10;;;;;;;21.54;100.00;99506.97;10356243;28;20100;-82
2023/09/21 17:41:03;;;;;;;0.00;0.00;;;;;;;21.28;100.00;99496.69;10367263;28;20374;-82
2023/09/21 17:46:06;;;;;;;0.00;0.00;;;;;;;22.60;100.00;99523.44;10382786;28;20080;-83
2023/09/21 17:51:08;;;;;;;0.00;0.00;;;;;;;21.94;100.00;99508.81;10384026;28;20125;-83
2023/09/21 17:56:10;;;;;;;0.00;0.00;;;;;;;22.42;100.00;99514.59;10383425;28;20061;-83
2023/09/21 18:01:12;;;;;;;0.10;0.10;;;;;;;22.35;100.00;99535.00;10359950;28;21006;-84
2023/09/21 18:06:14;;;;;;;0.08;0.00;;;;;;;21.22;100.00;99545.81;10367789;28;20050;-84
2023/09/21 18:11:16;;;;;;;0.00;0.00;;;;;;;21.71;100.00;99565.69;10369752;28;20076;-84
2023/09/21 18:16:18;;;;;;;0.00;0.00;;;;;;;21.55;100.00;99579.44;10365069;28;20497;-84
2023/09/21 18:21:21;;;;;;;0.00;0.00;;;;;;;21.99;100.00;99583.75;10379057;28;20100;-84
2023/09/21 18:26:23;;;;;;;0.57;0.22;;;;;;;21.38;100.00;99574.84;10385767;28;20045;-83
2023/09/21 18:31:26;;;;;;;0.08;0.00;;;;;;;21.55;100.00;99582.06;10364743;28;20129;-84
2023/09/21 18:36:28;;;;;;;0.28;0.28;;;;;;;21.38;100.00;99579.25;10383029;28;20548;-83
2023/09/21 18:41:30;;;;;;;0.45;0.28;;;;;;;21.30;100.00;99582.16;10381621;28;20528;-83
2023/09/21 18:46:32;;;;;;;0.10;0.10;;;;;;;21.42;100.00;99572.13;10359081;28;20046;-83
2023/09/21 18:51:34;;;;;;;1.02;0.15;;;;;;;21.69;100.00;99575.41;10348888;28;20909;-83
2023/09/21 18:56:35;;;;;;;0.00;0.00;;;;;;;22.70;100.00;99581.59;10388569;28;20137;-83
2023/09/21 19:01:55;;;;;;;0.10;0.10;;;;;;;22.77;100.00;99575.97;10365155;28;20046;-84
2023/09/21 19:06:57;;;;;;;0.00;0.00;;;;;;;22.35;100.00;99571.72;10362892;28;20129;-83
2023/09/21 19:11:59;;;;;;;0.20;0.20;;;;;;;22.93;100.00;99572.66;10382040;28;20050;-84
2023/09/21 19:17:01;;;;;;;0.00;0.00;;;;;;;22.06;100.00;99566.00;10379705;28;20042;-84
2023/09/21 19:22:03;;;;;;;0.10;0.10;;;;;;;22.13;100.00;99571.81;10381068;28;20064;-84
2023/09/21 19:27:04;;;;;;;0.00;0.00;;;;;;;21.52;100.00;99576.09;10380760;28;20038;-83
2023/09/21 19:32:07;;;;;;;0.00;0.00;;;;;;;21.19;100.00;99582.59;10364670;28;20053;-83
2023/09/21 19:37:08;;;;;;;0.50;0.50;;;;;;;20.91;100.00;99596.75;10348048;28;20064;-84
2023/09/21 19:42:10;;;;;;;0.00;0.00;;;;;;;20.80;100.00;99604.16;10364765;28;20440;-84
2023/09/21 19:47:12;;;;;;;0.10;0.10;;;;;;;21.19;100.00;99627.09;10374640;28;20509;-83
2023/09/21 19:52:15;;;;;;;1.48;0.75;;;;;;;20.59;100.00;99627.53;10374939;28;20073;-83
2023/09/21 19:57:17;;;;;;;0.60;0.38;;;;;;;20.27;100.00;99626.06;10385457;28;20038;-84
2023/09/21 20:02:19;;;;;;;0.15;0.15;;;;;;;20.90;100.00;99626.44;10395163;28;20512;-84
2023/09/21 20:07:21;;;;;;;2.58;0.88;;;;;;;20.54;100.00;99611.16;10367805;28;20093;-84
2023/09/21 20:12:22;;;;;;;3.92;0.85;;;;;;;20.50;100.00;99617.44;10373302;28;20509;-84
2023/09/21 20:17:24;;;;;;;0.20;0.20;;;;;;;20.25;100.00;99609.59;10384771;28;20046;-84
2023/09/21 20:22:26;;;;;;;0.47;0.20;;;;;;;20.67;100.00;99614.19;10370948;28;20392;-83
2023/09/21 20:27:28;;;;;;;0.10;0.10;;;;;;;20.34;100.00;99617.09;10363970;28;20563;-84
2023/09/21 20:32:30;;;;;;;0.43;0.30;;;;;;;20.24;100.00;99626.19;10379981;28;20107;-84
2023/09/21 20:37:31;;;;;;;0.35;0.28;;;;;;;20.18;100.00;99616.78;10367132;28;20580;-84
2023/09/21 20:42:33;;;;;;;0.20;0.20;;;;;;;20.38;100.00;99617.84;10379051;28;20426;-84
2023/09/21 20:47:35;;;;;;;0.10;0.10;;;;;;;20.40;100.00;99632.56;10353423;28;20522;-83
2023/09/21 20:52:37;;;;;;;0.25;0.17;;;;;;;20.46;100.00;99636.75;10363053;28;20054;-84
2023/09/21 20:57:39;;;;;;;0.00;0.00;;;;;;;20.21;100.00;99636.75;10371512;28;20050;-84
2023/09/21 21:02:42;;;;;;;0.08;0.03;;;;;;;20.09;100.00;99624.94;10370209;28;20050;-84
2023/09/21 21:07:43;;;;;;;0.10;0.10;;;;;;;19.86;100.00;99637.03;10386937;28;20555;-84
2023/09/21 21:12:45;;;;;;;0.13;0.10;;;;;;;19.82;100.00;99614.47;10376350;28;20078;-84
2023/09/21 21:17:47;;;;;;;0.00;0.00;;;;;;;19.69;100.00;99628.88;10385229;28;20042;-83
2023/09/21 21:22:48;;;;;;;0.00;0.00;;;;;;;19.80;100.00;99626.75;10353252;28;20060;-83
2023/09/21 21:27:50;;;;;;;0.00;0.00;;;;;;;19.55;100.00;99632.75;10374371;28;20046;-84
2023/09/21 21:32:52;;;;;;;0.08;0.08;;;;;;;19.47;100.00;99621.72;10368372;28;20046;-84
2023/09/21 21:37:53;;;;;;;0.10;0.10;;;;;;;19.50;100.00;99634.66;10384834;28;20065;-83
2023/09/21 21:42:55;;;;;;;0.30;0.22;;;;;;;19.37;100.00;99618.50;10384566;28;20524;-83
2023/09/21 21:47:57;;;;;;;0.10;0.10;;;;;;;19.14;100.00;99627.06;10385028;28;20054;-83
2023/09/21 21:52:58;;;;;;;0.10;0.10;;;;;;;19.06;100.00;99632.53;10370600;28;20073;-83
2023/09/21 21:58:00;;;;;;;0.05;0.05;;;;;;;19.66;100.00;99630.66;10369696;28;20042;-83
2023/09/21 22:03:02;;;;;;;0.00;0.00;;;;;;;19.60;100.00;99649.16;10368345;28;20053;-83
2023/09/21 22:08:07;;;;;;;0.20;0.13;;;;;;;20.04;100.00;99661.69;10383424;28;20052;-84
2023/09/21 22:13:09;;;;;;;0.10;0.10;;;;;;;20.10;100.00;99663.25;10367122;28;20038;-84
2023/09/21 22:18:13;;;;;;;0.70;0.15;;;;;;;19.71;100.00;99643.59;10367178;28;20041;-84
2023/09/21 22:23:15;;;;;;;0.00;0.00;;;;;;;20.07;100.00;99647.66;10368919;28;20053;-83
2023/09/21 22:28:16;;;;;;;1.65;0.40;;;;;;;19.76;100.00;99640.81;10383492;28;20507;-84
2023/09/21 22:33:18;;;;;;;0.00;0.00;;;;;;;19.96;100.00;99638.44;10368383;28;20041;-84
2023/09/21 22:38:20;;;;;;;0.10;0.10;;;;;;;19.93;100.00;99643.75;10367089;28;20041;-83
2023/09/21 22:43:22;;;;;;;0.10;0.10;;;;;;;19.62;100.00;99634.25;10383228;28;20389;-83
2023/09/21 22:48:23;;;;;;;0.00;0.00;;;;;;;19.85;100.00;99632.69;10366987;28;20481;-83
2023/09/21 22:53:28;;;;;;;0.03;0.00;;;;;;;19.79;100.00;99630.25;10362794;28;20096;-84
2023/09/21 22:58:30;;;;;;;0.63;0.52;;;;;;;19.63;100.00;99632.53;10382712;28;20057;-83
2023/09/21 23:03:32;;;;;;;0.43;0.43;;;;;;;19.61;100.00;99627.34;10365879;28;20046;-83
2023/09/21 23:08:35;;;;;;;0.10;0.10;;;;;;;19.32;100.00;99618.66;10387757;28;20149;-85